sensor_id;sensor_type;location;lat;lon;timestamp;P1;durP1;ratioP1;P2;durP2;ratioP2
11123;SDS011;5616;42.692;23.312;2023-05-07T00:01:40;12.20;;;8.33;;
11123;SDS011;5616;42.692;23.312;2023-05-07T00:04:08;10.07;;;8.20;;
11123;SDS011;5616;42.692;23.312;2023-05-07T00:06:35;10.43;;;8.10;;
11123;SDS011;5616;42.692;23.312;2023-05-07T00:09:01;9.00;;;8.00;;
11123;SDS011;5616;42.692;23.312;2023-05-07T00:11:30;10.50;;;8.57;;
11123;SDS011;5616;42.692;23.312;2023-05-07T00:13:57;12.70;;;8.10;;
11123;SDS011;5616;42.692;23.312;2023-05-07T00:16:24;9.70;;;8.27;;
11123;SDS011;5616;42.692;23.312;2023-05-07T00:18:52;10.37;;;8.10;;
11123;SDS011;5616;42.692;23.312;2023-05-07T00:21:18;13.03;;;7.73;;
11123;SDS011;5616;42.692;23.312;2023-05-07T00:23:46;10.07;;;7.90;;
11123;SDS011;5616;42.692;23.312;2023-05-07T00:26:13;9.33;;;7.60;;
11123;SDS011;5616;42.692;23.312;2023-05-07T00:28:43;14.33;;;8.50;;
11123;SDS011;5616;42.692;23.312;2023-05-07T00:31:10;9.50;;;8.20;;
11123;SDS011;5616;42.692;23.312;2023-05-07T00:33:37;10.03;;;8.03;;
11123;SDS011;5616;42.692;23.312;2023-05-07T00:36:04;10.53;;;8.77;;
11123;SDS011;5616;42.692;23.312;2023-05-07T00:38:31;10.90;;;8.63;;
11123;SDS011;5616;42.692;23.312;2023-05-07T00:40:58;10.87;;;8.63;;
11123;SDS011;5616;42.692;23.312;2023-05-07T00:43:25;10.50;;;8.13;;
11123;SDS011;5616;42.692;23.312;2023-05-07T00:45:54;12.97;;;8.20;;
11123;SDS011;5616;42.692;23.312;2023-05-07T00:48:21;11.23;;;8.47;;
11123;SDS011;5616;42.692;23.312;2023-05-07T00:50:49;11.17;;;9.13;;
11123;SDS011;5616;42.692;23.312;2023-05-07T00:53:16;11.37;;;7.87;;
11123;SDS011;5616;42.692;23.312;2023-05-07T00:55:43;13.93;;;8.20;;
11123;SDS011;5616;42.692;23.312;2023-05-07T00:58:10;14.93;;;7.83;;
11123;SDS011;5616;42.692;23.312;2023-05-07T01:00:37;8.77;;;7.97;;
11123;SDS011;5616;42.692;23.312;2023-05-07T01:03:06;9.70;;;8.17;;
11123;SDS011;5616;42.692;23.312;2023-05-07T01:05:32;10.07;;;7.77;;
11123;SDS011;5616;42.692;23.312;2023-05-07T01:07:59;10.60;;;8.40;;
11123;SDS011;5616;42.692;23.312;2023-05-07T01:10:27;11.90;;;8.37;;
11123;SDS011;5616;42.692;23.312;2023-05-07T01:12:55;10.63;;;8.83;;
11123;SDS011;5616;42.692;23.312;2023-05-07T01:15:25;9.43;;;8.27;;
11123;SDS011;5616;42.692;23.312;2023-05-07T01:17:52;14.23;;;8.57;;
11123;SDS011;5616;42.692;23.312;2023-05-07T01:20:27;9.33;;;8.43;;
11123;SDS011;5616;42.692;23.312;2023-05-07T01:22:57;10.57;;;8.40;;
11123;SDS011;5616;42.692;23.312;2023-05-07T01:25:24;10.00;;;8.23;;
11123;SDS011;5616;42.692;23.312;2023-05-07T01:27:55;16.83;;;9.77;;
11123;SDS011;5616;42.692;23.312;2023-05-07T01:30:26;10.67;;;9.23;;
11123;SDS011;5616;42.692;23.312;2023-05-07T01:32:56;10.00;;;8.83;;
11123;SDS011;5616;42.692;23.312;2023-05-07T01:35:27;11.13;;;9.33;;
11123;SDS011;5616;42.692;23.312;2023-05-07T01:37:58;10.77;;;9.10;;
11123;SDS011;5616;42.692;23.312;2023-05-07T01:40:25;11.70;;;9.37;;
11123;SDS011;5616;42.692;23.312;2023-05-07T01:42:52;9.37;;;8.03;;
11123;SDS011;5616;42.692;23.312;2023-05-07T01:45:21;8.17;;;7.10;;
11123;SDS011;5616;42.692;23.312;2023-05-07T01:47:49;9.57;;;7.40;;
11123;SDS011;5616;42.692;23.312;2023-05-07T01:53:06;11.17;;;6.57;;
11123;SDS011;5616;42.692;23.312;2023-05-07T01:55:42;9.43;;;6.67;;
11123;SDS011;5616;42.692;23.312;2023-05-07T01:58:10;9.80;;;6.60;;
11123;SDS011;5616;42.692;23.312;2023-05-07T02:00:37;8.00;;;6.37;;
11123;SDS011;5616;42.692;23.312;2023-05-07T02:03:05;7.60;;;6.80;;
11123;SDS011;5616;42.692;23.312;2023-05-07T02:05:40;6.77;;;5.47;;
11123;SDS011;5616;42.692;23.312;2023-05-07T02:08:28;7.13;;;5.90;;
11123;SDS011;5616;42.692;23.312;2023-05-07T02:10:56;6.60;;;5.50;;
11123;SDS011;5616;42.692;23.312;2023-05-07T02:13:25;8.97;;;5.70;;
11123;SDS011;5616;42.692;23.312;2023-05-07T02:15:53;6.23;;;5.63;;
11123;SDS011;5616;42.692;23.312;2023-05-07T02:18:21;6.80;;;5.30;;
11123;SDS011;5616;42.692;23.312;2023-05-07T02:20:48;6.23;;;5.63;;
11123;SDS011;5616;42.692;23.312;2023-05-07T02:23:15;8.63;;;5.40;;
11123;SDS011;5616;42.692;23.312;2023-05-07T02:25:43;7.13;;;5.60;;
11123;SDS011;5616;42.692;23.312;2023-05-07T02:28:10;6.43;;;5.10;;
11123;SDS011;5616;42.692;23.312;2023-05-07T02:30:44;7.20;;;5.77;;
11123;SDS011;5616;42.692;23.312;2023-05-07T02:33:11;6.93;;;5.20;;
11123;SDS011;5616;42.692;23.312;2023-05-07T02:35:39;5.97;;;5.17;;
11123;SDS011;5616;42.692;23.312;2023-05-07T02:38:06;9.10;;;5.70;;
11123;SDS011;5616;42.692;23.312;2023-05-07T02:40:36;6.10;;;4.93;;
11123;SDS011;5616;42.692;23.312;2023-05-07T02:43:06;7.00;;;6.30;;
11123;SDS011;5616;42.692;23.312;2023-05-07T02:45:33;7.73;;;6.17;;
11123;SDS011;5616;42.692;23.312;2023-05-07T02:48:01;7.43;;;6.17;;
11123;SDS011;5616;42.692;23.312;2023-05-07T02:50:28;7.20;;;5.83;;
11123;SDS011;5616;42.692;23.312;2023-05-07T02:52:55;9.33;;;6.90;;
11123;SDS011;5616;42.692;23.312;2023-05-07T02:55:21;8.03;;;7.00;;
11123;SDS011;5616;42.692;23.312;2023-05-07T02:57:48;10.37;;;7.47;;
11123;SDS011;5616;42.692;23.312;2023-05-07T03:00:17;11.30;;;7.27;;
11123;SDS011;5616;42.692;23.312;2023-05-07T03:02:53;10.20;;;7.83;;
11123;SDS011;5616;42.692;23.312;2023-05-07T03:05:21;10.07;;;8.00;;
11123;SDS011;5616;42.692;23.312;2023-05-07T03:07:48;8.80;;;7.90;;
11123;SDS011;5616;42.692;23.312;2023-05-07T03:10:15;9.70;;;7.87;;
11123;SDS011;5616;42.692;23.312;2023-05-07T03:12:41;11.17;;;8.30;;
11123;SDS011;5616;42.692;23.312;2023-05-07T03:15:12;12.00;;;8.27;;
11123;SDS011;5616;42.692;23.312;2023-05-07T03:17:41;8.90;;;8.00;;
11123;SDS011;5616;42.692;23.312;2023-05-07T03:20:08;12.03;;;8.77;;
11123;SDS011;5616;42.692;23.312;2023-05-07T03:22:36;11.13;;;9.23;;
11123;SDS011;5616;42.692;23.312;2023-05-07T03:25:03;11.60;;;8.30;;
11123;SDS011;5616;42.692;23.312;2023-05-07T03:27:30;11.50;;;8.23;;
11123;SDS011;5616;42.692;23.312;2023-05-07T03:29:57;11.23;;;8.43;;
11123;SDS011;5616;42.692;23.312;2023-05-07T03:32:24;9.47;;;8.17;;
11123;SDS011;5616;42.692;23.312;2023-05-07T03:34:52;8.53;;;7.57;;
11123;SDS011;5616;42.692;23.312;2023-05-07T03:37:20;10.73;;;8.17;;
11123;SDS011;5616;42.692;23.312;2023-05-07T03:39:47;9.53;;;7.63;;
11123;SDS011;5616;42.692;23.312;2023-05-07T03:42:14;10.30;;;7.53;;
11123;SDS011;5616;42.692;23.312;2023-05-07T03:44:41;9.80;;;8.00;;
11123;SDS011;5616;42.692;23.312;2023-05-07T03:47:08;10.77;;;8.13;;
11123;SDS011;5616;42.692;23.312;2023-05-07T03:49:35;12.00;;;8.20;;
11123;SDS011;5616;42.692;23.312;2023-05-07T03:52:03;9.03;;;7.53;;
11123;SDS011;5616;42.692;23.312;2023-05-07T03:54:31;10.30;;;8.03;;
11123;SDS011;5616;42.692;23.312;2023-05-07T03:56:58;14.07;;;8.27;;
11123;SDS011;5616;42.692;23.312;2023-05-07T03:59:25;11.10;;;7.73;;
11123;SDS011;5616;42.692;23.312;2023-05-07T04:01:52;9.03;;;7.50;;
11123;SDS011;5616;42.692;23.312;2023-05-07T04:04:21;8.70;;;7.20;;
11123;SDS011;5616;42.692;23.312;2023-05-07T04:06:48;11.53;;;7.97;;
11123;SDS011;5616;42.692;23.312;2023-05-07T04:09:16;11.77;;;7.47;;
11123;SDS011;5616;42.692;23.312;2023-05-07T04:11:45;8.67;;;7.63;;
11123;SDS011;5616;42.692;23.312;2023-05-07T04:14:12;9.03;;;7.63;;
11123;SDS011;5616;42.692;23.312;2023-05-07T04:16:38;9.57;;;7.63;;
11123;SDS011;5616;42.692;23.312;2023-05-07T04:19:06;8.63;;;7.63;;
11123;SDS011;5616;42.692;23.312;2023-05-07T04:21:34;8.40;;;6.70;;
11123;SDS011;5616;42.692;23.312;2023-05-07T04:24:02;8.57;;;6.47;;
11123;SDS011;5616;42.692;23.312;2023-05-07T04:26:30;7.90;;;7.10;;
11123;SDS011;5616;42.692;23.312;2023-05-07T04:28:57;9.90;;;7.20;;
11123;SDS011;5616;42.692;23.312;2023-05-07T04:31:30;8.57;;;7.13;;
11123;SDS011;5616;42.692;23.312;2023-05-07T04:33:57;11.23;;;6.80;;
11123;SDS011;5616;42.692;23.312;2023-05-07T04:36:24;14.90;;;8.00;;
11123;SDS011;5616;42.692;23.312;2023-05-07T04:38:57;8.27;;;7.37;;
11123;SDS011;5616;42.692;23.312;2023-05-07T04:41:24;7.83;;;6.90;;
11123;SDS011;5616;42.692;23.312;2023-05-07T04:43:53;8.17;;;7.33;;
11123;SDS011;5616;42.692;23.312;2023-05-07T04:46:22;8.13;;;7.33;;
11123;SDS011;5616;42.692;23.312;2023-05-07T04:48:51;10.27;;;6.97;;
11123;SDS011;5616;42.692;23.312;2023-05-07T04:51:18;10.83;;;7.60;;
11123;SDS011;5616;42.692;23.312;2023-05-07T04:53:44;8.80;;;7.70;;
11123;SDS011;5616;42.692;23.312;2023-05-07T04:56:11;10.43;;;7.90;;
11123;SDS011;5616;42.692;23.312;2023-05-07T04:58:41;10.20;;;7.93;;
11123;SDS011;5616;42.692;23.312;2023-05-07T05:01:10;13.27;;;7.43;;
11123;SDS011;5616;42.692;23.312;2023-05-07T05:03:37;8.97;;;8.00;;
11123;SDS011;5616;42.692;23.312;2023-05-07T05:06:07;11.60;;;8.23;;
11123;SDS011;5616;42.692;23.312;2023-05-07T05:08:33;11.07;;;7.90;;
11123;SDS011;5616;42.692;23.312;2023-05-07T05:11:02;11.17;;;8.00;;
11123;SDS011;5616;42.692;23.312;2023-05-07T05:13:30;8.63;;;7.77;;
11123;SDS011;5616;42.692;23.312;2023-05-07T05:15:58;12.17;;;8.50;;
11123;SDS011;5616;42.692;23.312;2023-05-07T05:18:28;10.40;;;8.63;;
11123;SDS011;5616;42.692;23.312;2023-05-07T05:20:55;11.00;;;8.63;;
11123;SDS011;5616;42.692;23.312;2023-05-07T05:23:22;10.80;;;8.47;;
11123;SDS011;5616;42.692;23.312;2023-05-07T05:25:49;9.43;;;8.47;;
11123;SDS011;5616;42.692;23.312;2023-05-07T05:28:16;9.70;;;8.40;;
11123;SDS011;5616;42.692;23.312;2023-05-07T05:30:43;11.43;;;8.43;;
11123;SDS011;5616;42.692;23.312;2023-05-07T05:33:09;10.93;;;8.10;;
11123;SDS011;5616;42.692;23.312;2023-05-07T05:35:38;9.90;;;8.53;;
11123;SDS011;5616;42.692;23.312;2023-05-07T05:38:09;11.57;;;8.73;;
11123;SDS011;5616;42.692;23.312;2023-05-07T05:40:38;11.03;;;8.77;;
11123;SDS011;5616;42.692;23.312;2023-05-07T05:43:05;9.73;;;8.33;;
11123;SDS011;5616;42.692;23.312;2023-05-07T05:45:32;11.73;;;8.47;;
11123;SDS011;5616;42.692;23.312;2023-05-07T05:47:59;9.83;;;8.83;;
11123;SDS011;5616;42.692;23.312;2023-05-07T05:50:26;9.43;;;8.40;;
11123;SDS011;5616;42.692;23.312;2023-05-07T05:52:55;12.60;;;9.00;;
11123;SDS011;5616;42.692;23.312;2023-05-07T05:55:24;10.10;;;8.60;;
11123;SDS011;5616;42.692;23.312;2023-05-07T05:57:50;11.33;;;9.40;;
11123;SDS011;5616;42.692;23.312;2023-05-07T06:00:18;11.90;;;8.77;;
11123;SDS011;5616;42.692;23.312;2023-05-07T06:02:55;10.30;;;9.17;;
11123;SDS011;5616;42.692;23.312;2023-05-07T06:05:23;10.23;;;8.63;;
11123;SDS011;5616;42.692;23.312;2023-05-07T06:07:52;11.23;;;9.40;;
11123;SDS011;5616;42.692;23.312;2023-05-07T06:10:21;11.73;;;9.07;;
11123;SDS011;5616;42.692;23.312;2023-05-07T06:12:48;10.50;;;9.07;;
11123;SDS011;5616;42.692;23.312;2023-05-07T06:15:15;10.60;;;9.07;;
11123;SDS011;5616;42.692;23.312;2023-05-07T06:17:43;11.83;;;10.07;;
11123;SDS011;5616;42.692;23.312;2023-05-07T06:20:10;11.30;;;9.40;;
11123;SDS011;5616;42.692;23.312;2023-05-07T06:22:38;10.97;;;8.87;;
11123;SDS011;5616;42.692;23.312;2023-05-07T06:25:08;11.70;;;8.93;;
11123;SDS011;5616;42.692;23.312;2023-05-07T06:27:36;9.97;;;8.97;;
11123;SDS011;5616;42.692;23.312;2023-05-07T06:30:05;11.97;;;10.70;;
11123;SDS011;5616;42.692;23.312;2023-05-07T06:32:33;12.97;;;9.07;;
11123;SDS011;5616;42.692;23.312;2023-05-07T06:34:59;13.67;;;9.33;;
11123;SDS011;5616;42.692;23.312;2023-05-07T06:37:26;9.87;;;8.63;;
11123;SDS011;5616;42.692;23.312;2023-05-07T06:40:02;13.00;;;9.17;;
11123;SDS011;5616;42.692;23.312;2023-05-07T06:42:35;11.93;;;9.07;;
11123;SDS011;5616;42.692;23.312;2023-05-07T06:45:20;12.10;;;9.10;;
11123;SDS011;5616;42.692;23.312;2023-05-07T06:47:47;9.10;;;8.07;;
11123;SDS011;5616;42.692;23.312;2023-05-07T06:50:14;8.83;;;7.83;;
11123;SDS011;5616;42.692;23.312;2023-05-07T06:52:43;8.87;;;7.97;;
11123;SDS011;5616;42.692;23.312;2023-05-07T06:55:09;12.03;;;7.83;;
11123;SDS011;5616;42.692;23.312;2023-05-07T06:57:38;11.20;;;7.70;;
11123;SDS011;5616;42.692;23.312;2023-05-07T07:00:06;10.03;;;8.57;;
11123;SDS011;5616;42.692;23.312;2023-05-07T07:02:43;10.00;;;8.30;;
11123;SDS011;5616;42.692;23.312;2023-05-07T07:05:11;12.23;;;8.43;;
11123;SDS011;5616;42.692;23.312;2023-05-07T07:07:38;10.10;;;8.33;;
11123;SDS011;5616;42.692;23.312;2023-05-07T07:10:05;11.30;;;8.33;;
11123;SDS011;5616;42.692;23.312;2023-05-07T07:12:33;12.07;;;7.87;;
11123;SDS011;5616;42.692;23.312;2023-05-07T07:15:01;5.63;;;4.70;;
11123;SDS011;5616;42.692;23.312;2023-05-07T07:17:28;10.30;;;8.37;;
11123;SDS011;5616;42.692;23.312;2023-05-07T07:19:55;9.07;;;7.73;;
11123;SDS011;5616;42.692;23.312;2023-05-07T07:22:22;8.63;;;7.73;;
11123;SDS011;5616;42.692;23.312;2023-05-07T07:24:49;8.73;;;7.25;;
11123;SDS011;5616;42.692;23.312;2023-05-07T07:27:17;8.27;;;7.40;;
11123;SDS011;5616;42.692;23.312;2023-05-07T07:29:43;8.23;;;6.93;;
11123;SDS011;5616;42.692;23.312;2023-05-07T07:32:12;8.07;;;7.00;;
11123;SDS011;5616;42.692;23.312;2023-05-07T07:34:39;8.50;;;6.60;;
11123;SDS011;5616;42.692;23.312;2023-05-07T07:37:06;7.45;;;6.65;;
11123;SDS011;5616;42.692;23.312;2023-05-07T07:39:35;7.88;;;6.50;;
11123;SDS011;5616;42.692;23.312;2023-05-07T07:42:04;8.95;;;6.40;;
11123;SDS011;5616;42.692;23.312;2023-05-07T07:44:31;8.45;;;6.50;;
11123;SDS011;5616;42.692;23.312;2023-05-07T07:47:03;9.75;;;6.95;;
11123;SDS011;5616;42.692;23.312;2023-05-07T07:49:32;9.15;;;7.90;;
11123;SDS011;5616;42.692;23.312;2023-05-07T07:52:03;8.52;;;7.60;;
11123;SDS011;5616;42.692;23.312;2023-05-07T07:54:32;7.70;;;6.90;;
11123;SDS011;5616;42.692;23.312;2023-05-07T07:56:59;9.75;;;6.60;;
11123;SDS011;5616;42.692;23.312;2023-05-07T07:59:29;6.93;;;6.18;;
11123;SDS011;5616;42.692;23.312;2023-05-07T08:01:56;7.25;;;6.10;;
11123;SDS011;5616;42.692;23.312;2023-05-07T08:04:24;6.97;;;6.32;;
11123;SDS011;5616;42.692;23.312;2023-05-07T08:06:55;8.60;;;6.03;;
11123;SDS011;5616;42.692;23.312;2023-05-07T08:09:23;7.88;;;5.63;;
11123;SDS011;5616;42.692;23.312;2023-05-07T08:11:52;6.10;;;5.05;;
11123;SDS011;5616;42.692;23.312;2023-05-07T08:14:19;8.32;;;5.15;;
11123;SDS011;5616;42.692;23.312;2023-05-07T08:16:47;8.10;;;5.70;;
11123;SDS011;5616;42.692;23.312;2023-05-07T08:19:14;7.22;;;4.82;;
11123;SDS011;5616;42.692;23.312;2023-05-07T08:21:41;6.82;;;5.50;;
11123;SDS011;5616;42.692;23.312;2023-05-07T08:24:11;6.40;;;4.97;;
11123;SDS011;5616;42.692;23.312;2023-05-07T08:26:39;6.85;;;4.60;;
11123;SDS011;5616;42.692;23.312;2023-05-07T08:29:07;11.07;;;4.75;;
11123;SDS011;5616;42.692;23.312;2023-05-07T08:31:34;5.45;;;4.38;;
11123;SDS011;5616;42.692;23.312;2023-05-07T08:34:01;5.28;;;4.07;;
11123;SDS011;5616;42.692;23.312;2023-05-07T08:36:28;5.07;;;4.40;;
11123;SDS011;5616;42.692;23.312;2023-05-07T08:38:54;7.57;;;4.88;;
11123;SDS011;5616;42.692;23.312;2023-05-07T08:41:23;6.18;;;4.10;;
11123;SDS011;5616;42.692;23.312;2023-05-07T08:43:50;6.38;;;4.32;;
11123;SDS011;5616;42.692;23.312;2023-05-07T08:46:18;6.22;;;4.72;;
11123;SDS011;5616;42.692;23.312;2023-05-07T08:48:48;4.70;;;4.28;;
11123;SDS011;5616;42.692;23.312;2023-05-07T08:51:15;4.15;;;3.53;;
11123;SDS011;5616;42.692;23.312;2023-05-07T08:53:44;4.78;;;3.08;;
11123;SDS011;5616;42.692;23.312;2023-05-07T08:56:16;3.45;;;2.85;;
11123;SDS011;5616;42.692;23.312;2023-05-07T08:58:47;6.63;;;3.30;;
11123;SDS011;5616;42.692;23.312;2023-05-07T09:01:15;5.15;;;3.80;;
11123;SDS011;5616;42.692;23.312;2023-05-07T09:03:46;5.90;;;3.70;;
11123;SDS011;5616;42.692;23.312;2023-05-07T09:06:14;4.28;;;3.85;;
11123;SDS011;5616;42.692;23.312;2023-05-07T09:08:44;5.55;;;3.70;;
11123;SDS011;5616;42.692;23.312;2023-05-07T09:11:19;4.40;;;4.00;;
11123;SDS011;5616;42.692;23.312;2023-05-07T09:13:48;8.05;;;3.67;;
11123;SDS011;5616;42.692;23.312;2023-05-07T09:16:16;4.30;;;3.90;;
11123;SDS011;5616;42.692;23.312;2023-05-07T09:18:44;5.63;;;3.67;;
11123;SDS011;5616;42.692;23.312;2023-05-07T09:21:14;6.55;;;3.97;;
11123;SDS011;5616;42.692;23.312;2023-05-07T09:23:42;6.05;;;4.35;;
11123;SDS011;5616;42.692;23.312;2023-05-07T09:26:09;6.13;;;3.92;;
11123;SDS011;5616;42.692;23.312;2023-05-07T09:28:39;5.55;;;4.00;;
11123;SDS011;5616;42.692;23.312;2023-05-07T09:31:09;5.53;;;3.70;;
11123;SDS011;5616;42.692;23.312;2023-05-07T09:33:37;4.05;;;3.72;;
11123;SDS011;5616;42.692;23.312;2023-05-07T09:36:05;5.18;;;4.43;;
11123;SDS011;5616;42.692;23.312;2023-05-07T09:38:34;4.68;;;4.20;;
11123;SDS011;5616;42.692;23.312;2023-05-07T09:41:03;4.20;;;3.90;;
11123;SDS011;5616;42.692;23.312;2023-05-07T09:43:33;7.90;;;4.82;;
11123;SDS011;5616;42.692;23.312;2023-05-07T09:46:02;7.50;;;4.13;;
11123;SDS011;5616;42.692;23.312;2023-05-07T09:48:31;6.63;;;3.95;;
11123;SDS011;5616;42.692;23.312;2023-05-07T09:51:02;5.38;;;3.55;;
11123;SDS011;5616;42.692;23.312;2023-05-07T09:53:37;5.60;;;3.85;;
11123;SDS011;5616;42.692;23.312;2023-05-07T09:56:06;4.97;;;3.50;;
11123;SDS011;5616;42.692;23.312;2023-05-07T09:58:33;5.50;;;3.58;;
11123;SDS011;5616;42.692;23.312;2023-05-07T10:01:04;4.57;;;3.40;;
11123;SDS011;5616;42.692;23.312;2023-05-07T10:03:33;5.00;;;3.65;;
11123;SDS011;5616;42.692;23.312;2023-05-07T10:06:04;5.25;;;3.63;;
11123;SDS011;5616;42.692;23.312;2023-05-07T10:08:32;7.65;;;3.63;;
11123;SDS011;5616;42.692;23.312;2023-05-07T10:11:01;5.10;;;3.80;;
11123;SDS011;5616;42.692;23.312;2023-05-07T10:13:30;4.53;;;2.60;;
11123;SDS011;5616;42.692;23.312;2023-05-07T10:15:59;3.88;;;2.85;;
11123;SDS011;5616;42.692;23.312;2023-05-07T10:18:34;4.68;;;3.15;;
11123;SDS011;5616;42.692;23.312;2023-05-07T10:21:08;3.53;;;2.67;;
11123;SDS011;5616;42.692;23.312;2023-05-07T10:23:42;4.78;;;2.85;;
11123;SDS011;5616;42.692;23.312;2023-05-07T10:26:11;4.05;;;2.80;;
11123;SDS011;5616;42.692;23.312;2023-05-07T10:28:42;4.10;;;2.90;;
11123;SDS011;5616;42.692;23.312;2023-05-07T10:31:23;3.63;;;2.55;;
11123;SDS011;5616;42.692;23.312;2023-05-07T10:34:04;3.72;;;2.60;;
11123;SDS011;5616;42.692;23.312;2023-05-07T10:36:35;5.88;;;2.78;;
11123;SDS011;5616;42.692;23.312;2023-05-07T10:39:05;3.65;;;2.83;;
11123;SDS011;5616;42.692;23.312;2023-05-07T10:41:32;3.78;;;2.63;;
11123;SDS011;5616;42.692;23.312;2023-05-07T10:43:59;3.55;;;2.90;;
11123;SDS011;5616;42.692;23.312;2023-05-07T10:46:30;3.28;;;2.92;;
11123;SDS011;5616;42.692;23.312;2023-05-07T10:49:10;3.97;;;2.88;;
11123;SDS011;5616;42.692;23.312;2023-05-07T10:51:46;3.03;;;2.67;;
11123;SDS011;5616;42.692;23.312;2023-05-07T10:54:46;4.15;;;3.30;;
11123;SDS011;5616;42.692;23.312;2023-05-07T10:57:33;3.22;;;2.90;;
11123;SDS011;5616;42.692;23.312;2023-05-07T11:03:13;3.95;;;3.20;;
11123;SDS011;5616;42.692;23.312;2023-05-07T11:08:52;3.30;;;3.00;;
11123;SDS011;5616;42.692;23.312;2023-05-07T11:14:14;4.07;;;2.83;;
11123;SDS011;5616;42.692;23.312;2023-05-07T11:17:07;3.67;;;2.97;;
11123;SDS011;5616;42.692;23.312;2023-05-07T11:19:50;4.45;;;2.97;;
11123;SDS011;5616;42.692;23.312;2023-05-07T11:22:38;3.60;;;3.10;;
11123;SDS011;5616;42.692;23.312;2023-05-07T11:25:26;5.20;;;3.28;;
11123;SDS011;5616;42.692;23.312;2023-05-07T11:28:03;4.85;;;2.88;;
11123;SDS011;5616;42.692;23.312;2023-05-07T11:30:31;3.80;;;3.28;;
11123;SDS011;5616;42.692;23.312;2023-05-07T11:32:59;4.15;;;3.17;;
11123;SDS011;5616;42.692;23.312;2023-05-07T11:35:26;3.83;;;2.90;;
11123;SDS011;5616;42.692;23.312;2023-05-07T11:37:59;4.30;;;2.65;;
11123;SDS011;5616;42.692;23.312;2023-05-07T11:40:27;4.43;;;2.53;;
11123;SDS011;5616;42.692;23.312;2023-05-07T11:42:53;3.08;;;2.80;;
11123;SDS011;5616;42.692;23.312;2023-05-07T11:45:23;4.03;;;2.65;;
11123;SDS011;5616;42.692;23.312;2023-05-07T11:47:50;6.10;;;2.55;;
11123;SDS011;5616;42.692;23.312;2023-05-07T11:50:17;2.83;;;2.63;;
11123;SDS011;5616;42.692;23.312;2023-05-07T11:52:49;2.78;;;2.53;;
11123;SDS011;5616;42.692;23.312;2023-05-07T11:55:19;3.35;;;2.90;;
11123;SDS011;5616;42.692;23.312;2023-05-07T11:57:47;3.25;;;2.70;;
11123;SDS011;5616;42.692;23.312;2023-05-07T12:00:15;3.08;;;2.75;;
11123;SDS011;5616;42.692;23.312;2023-05-07T12:02:43;2.47;;;2.28;;
11123;SDS011;5616;42.692;23.312;2023-05-07T12:05:11;2.67;;;2.47;;
11123;SDS011;5616;42.692;23.312;2023-05-07T12:07:38;2.58;;;2.38;;
11123;SDS011;5616;42.692;23.312;2023-05-07T12:10:05;2.63;;;2.42;;
11123;SDS011;5616;42.692;23.312;2023-05-07T12:12:39;3.10;;;2.42;;
11123;SDS011;5616;42.692;23.312;2023-05-07T12:15:07;3.85;;;2.17;;
11123;SDS011;5616;42.692;23.312;2023-05-07T12:17:35;2.00;;;1.80;;
11123;SDS011;5616;42.692;23.312;2023-05-07T12:20:02;3.40;;;2.05;;
11123;SDS011;5616;42.692;23.312;2023-05-07T12:22:30;3.75;;;2.05;;
11123;SDS011;5616;42.692;23.312;2023-05-07T12:24:57;1.88;;;1.70;;
11123;SDS011;5616;42.692;23.312;2023-05-07T12:27:25;2.05;;;1.85;;
11123;SDS011;5616;42.692;23.312;2023-05-07T12:29:54;2.83;;;2.30;;
11123;SDS011;5616;42.692;23.312;2023-05-07T12:32:24;4.03;;;2.00;;
11123;SDS011;5616;42.692;23.312;2023-05-07T12:34:51;3.38;;;2.35;;
11123;SDS011;5616;42.692;23.312;2023-05-07T12:37:22;3.50;;;2.30;;
11123;SDS011;5616;42.692;23.312;2023-05-07T12:40:02;2.75;;;2.35;;
11123;SDS011;5616;42.692;23.312;2023-05-07T12:42:32;3.10;;;2.15;;
11123;SDS011;5616;42.692;23.312;2023-05-07T12:45:00;2.85;;;2.30;;
11123;SDS011;5616;42.692;23.312;2023-05-07T12:47:34;2.67;;;2.30;;
11123;SDS011;5616;42.692;23.312;2023-05-07T12:50:01;3.90;;;2.03;;
11123;SDS011;5616;42.692;23.312;2023-05-07T12:52:29;2.47;;;2.15;;
11123;SDS011;5616;42.692;23.312;2023-05-07T12:54:56;2.20;;;2.00;;
11123;SDS011;5616;42.692;23.312;2023-05-07T12:57:23;2.38;;;2.20;;
11123;SDS011;5616;42.692;23.312;2023-05-07T12:59:50;2.70;;;2.13;;
11123;SDS011;5616;42.692;23.312;2023-05-07T13:02:18;6.18;;;2.30;;
11123;SDS011;5616;42.692;23.312;2023-05-07T13:04:45;2.60;;;2.13;;
11123;SDS011;5616;42.692;23.312;2023-05-07T13:07:12;2.72;;;2.50;;
11123;SDS011;5616;42.692;23.312;2023-05-07T13:09:39;3.50;;;2.67;;
11123;SDS011;5616;42.692;23.312;2023-05-07T13:12:07;2.60;;;2.33;;
11123;SDS011;5616;42.692;23.312;2023-05-07T13:14:34;5.15;;;2.40;;
11123;SDS011;5616;42.692;23.312;2023-05-07T13:17:00;4.75;;;2.25;;
11123;SDS011;5616;42.692;23.312;2023-05-07T13:19:28;3.08;;;2.40;;
11123;SDS011;5616;42.692;23.312;2023-05-07T13:21:55;2.55;;;2.35;;
11123;SDS011;5616;42.692;23.312;2023-05-07T13:24:22;2.50;;;2.30;;
11123;SDS011;5616;42.692;23.312;2023-05-07T13:26:49;3.45;;;2.30;;
11123;SDS011;5616;42.692;23.312;2023-05-07T13:29:16;2.47;;;2.28;;
11123;SDS011;5616;42.692;23.312;2023-05-07T13:31:42;3.30;;;2.17;;
11123;SDS011;5616;42.692;23.312;2023-05-07T13:34:09;2.95;;;2.42;;
11123;SDS011;5616;42.692;23.312;2023-05-07T13:36:37;5.13;;;2.30;;
11123;SDS011;5616;42.692;23.312;2023-05-07T13:39:07;2.88;;;2.30;;
11123;SDS011;5616;42.692;23.312;2023-05-07T13:41:34;4.15;;;2.60;;
11123;SDS011;5616;42.692;23.312;2023-05-07T13:44:00;2.67;;;2.30;;
11123;SDS011;5616;42.692;23.312;2023-05-07T13:46:27;3.38;;;2.22;;
11123;SDS011;5616;42.692;23.312;2023-05-07T13:48:54;2.30;;;2.10;;
11123;SDS011;5616;42.692;23.312;2023-05-07T13:51:21;3.25;;;2.38;;
11123;SDS011;5616;42.692;23.312;2023-05-07T13:53:49;2.55;;;2.00;;
11123;SDS011;5616;42.692;23.312;2023-05-07T13:56:17;3.92;;;2.47;;
11123;SDS011;5616;42.692;23.312;2023-05-07T13:58:45;2.33;;;2.13;;
11123;SDS011;5616;42.692;23.312;2023-05-07T14:01:12;4.13;;;2.45;;
11123;SDS011;5616;42.692;23.312;2023-05-07T14:03:38;2.42;;;2.20;;
11123;SDS011;5616;42.692;23.312;2023-05-07T14:06:05;3.17;;;2.40;;
11123;SDS011;5616;42.692;23.312;2023-05-07T14:08:32;2.60;;;2.40;;
11123;SDS011;5616;42.692;23.312;2023-05-07T14:11:00;2.53;;;2.20;;
11123;SDS011;5616;42.692;23.312;2023-05-07T14:13:27;2.63;;;2.13;;
11123;SDS011;5616;42.692;23.312;2023-05-07T14:15:55;3.50;;;2.42;;
11123;SDS011;5616;42.692;23.312;2023-05-07T14:18:22;4.20;;;2.20;;
11123;SDS011;5616;42.692;23.312;2023-05-07T14:20:49;3.85;;;2.65;;
11123;SDS011;5616;42.692;23.312;2023-05-07T14:23:16;2.40;;;2.20;;
11123;SDS011;5616;42.692;23.312;2023-05-07T14:25:44;4.20;;;2.20;;
11123;SDS011;5616;42.692;23.312;2023-05-07T14:28:14;2.85;;;2.55;;
11123;SDS011;5616;42.692;23.312;2023-05-07T14:30:40;2.63;;;2.40;;
11123;SDS011;5616;42.692;23.312;2023-05-07T14:33:07;6.63;;;2.50;;
11123;SDS011;5616;42.692;23.312;2023-05-07T14:35:34;3.65;;;2.63;;
11123;SDS011;5616;42.692;23.312;2023-05-07T14:38:01;4.10;;;2.50;;
11123;SDS011;5616;42.692;23.312;2023-05-07T14:40:27;2.88;;;2.55;;
11123;SDS011;5616;42.692;23.312;2023-05-07T14:42:54;2.45;;;2.25;;
11123;SDS011;5616;42.692;23.312;2023-05-07T14:45:23;3.38;;;2.58;;
11123;SDS011;5616;42.692;23.312;2023-05-07T14:47:50;2.63;;;2.42;;
11123;SDS011;5616;42.692;23.312;2023-05-07T14:50:17;3.20;;;2.53;;
11123;SDS011;5616;42.692;23.312;2023-05-07T14:52:44;4.28;;;2.78;;
11123;SDS011;5616;42.692;23.312;2023-05-07T14:55:11;2.50;;;2.22;;
11123;SDS011;5616;42.692;23.312;2023-05-07T14:57:38;2.63;;;2.42;;
11123;SDS011;5616;42.692;23.312;2023-05-07T15:00:06;4.13;;;2.47;;
11123;SDS011;5616;42.692;23.312;2023-05-07T15:02:36;4.15;;;2.60;;
11123;SDS011;5616;42.692;23.312;2023-05-07T15:05:03;4.20;;;2.60;;